Time;durP1;ratioP1;P1;durP2;ratioP2;P2;SDS_P1;SDS_P2;PMS_P1;PMS_P2;Temp;Humidity;BMP_temperature;BMP_pressure;BME280_temperature;BME280_humidity;BME280_pressure;Samples;Min_cycle;Max_cycle;Signal;HPM_P1;HPM_P2
2021/11/17 02:26:56;;;;;;;32.90;3.30;;;;;;;;;;5024100;28;20591;-59
2021/11/17 02:29:53;;;;;;;44.67;3.50;;;;;;;;;;5022459;28;20025;-59
2021/11/17 02:32:34;;;;;;;45.97;4.75;;;;;;;;;;5022823;28;20056;-60
2021/11/17 02:35:41;;;;;;;36.45;3.65;;;;;;;;;;5019168;28;20034;-58
2021/11/17 02:38:12;;;;;;;37.15;3.42;;;;;;;;;;5020106;28;20033;-59
2021/11/17 02:41:03;;;;;;;54.80;4.95;;;;;;;;;;5026038;28;20037;-60
2021/11/17 02:43:35;;;;;;;46.08;3.45;;;;;;;;;;5021479;28;20041;-59
2021/11/17 02:46:21;;;;;;;43.58;3.75;;;;;;;;;;5020492;28;20386;-59
2021/11/17 02:48:53;;;;;;;50.65;3.72;;;;;;;;;;5019547;28;20033;-59
2021/11/17 02:51:51;;;;;;;42.33;4.40;;;;;;;;;;5017266;28;20025;-59
2021/11/17 02:54:30;;;;;;;46.75;4.68;;;;;;;;;;5019123;28;20037;-59
2021/11/17 02:57:17;;;;;;;37.38;4.13;;;;;;;;;;5021327;28;20033;-59
2021/11/17 03:00:03;;;;;;;46.85;4.13;;;;;;;;;;5020106;28;20033;-59
2021/11/17 03:02:50;;;;;;;52.17;4.18;;;;;;;;;;5020163;28;20080;-60
2021/11/17 03:05:19;;;;;;;33.58;3.70;;;;;;;;;;5017531;28;20100;-59
2021/11/17 03:07:51;;;;;;;52.08;3.97;;;;;;;;;;5021352;28;20097;-59
2021/11/17 03:10:53;;;;;;;44.15;3.92;;;;;;;;;;5021758;28;20037;-59
2021/11/17 03:13:31;;;;;;;39.88;3.80;;;;;;;;;;5014422;28;20046;-60
2021/11/17 03:16:15;;;;;;;56.72;4.30;;;;;;;;;;5019564;28;20022;-61
2021/11/17 03:18:50;;;;;;;51.53;4.65;;;;;;;;;;5022595;28;20317;-59
2021/11/17 03:21:27;;;;;;;37.05;3.20;;;;;;;;;;5015182;28;20544;-59
2021/11/17 03:24:25;;;;;;;57.33;4.60;;;;;;;;;;5022488;28;20146;-59
2021/11/17 03:27:18;;;;;;;58.55;4.53;;;;;;;;;;5011906;28;20531;-60
2021/11/17 03:30:23;;;;;;;45.00;4.60;;;;;;;;;;5022400;28;20029;-59
2021/11/17 03:33:07;;;;;;;41.25;5.60;;;;;;;;;;4973614;28;20185;-59
2021/11/17 03:35:54;;;;;;;46.25;4.95;;;;;;;;;;4979804;28;20030;-59
2021/11/17 03:38:35;;;;;;;48.45;4.88;;;;;;;;;;5008102;28;20033;-59
2021/11/17 03:41:45;;;;;;;43.33;3.70;;;;;;;;;;5017268;28;20370;-59
2021/11/17 03:44:19;;;;;;;54.70;7.45;;;;;;;;;;4974258;28;20058;-59
2021/11/17 03:47:09;;;;;;;53.72;5.57;;;;;;;;;;4977972;28;20476;-59
2021/11/17 03:49:40;;;;;;;58.97;6.13;;;;;;;;;;4999765;28;20034;-59
2021/11/17 03:52:15;;;;;;;47.20;3.47;;;;;;;;;;5017144;28;20080;-59
2021/11/17 03:55:08;;;;;;;41.17;4.15;;;;;;;;;;5011356;28;20022;-59
2021/11/17 03:57:52;;;;;;;63.45;4.38;;;;;;;;;;5012071;28;20112;-59
2021/11/17 04:00:36;;;;;;;43.42;4.40;;;;;;;;;;5017146;28;20025;-59
2021/11/17 04:03:23;;;;;;;43.53;3.00;;;;;;;;;;5016640;28;20656;-59
2021/11/17 04:05:55;;;;;;;47.70;3.30;;;;;;;;;;5019542;28;20501;-60
2021/11/17 04:08:40;;;;;;;36.97;4.60;;;;;;;;;;5021321;28;20030;-59
2021/11/17 04:11:20;;;;;;;46.17;3.40;;;;;;;;;;5021001;28;20030;-59
2021/11/17 04:14:01;;;;;;;44.17;4.32;;;;;;;;;;5018955;28;20490;-61
2021/11/17 04:16:32;;;;;;;39.88;3.45;;;;;;;;;;5015058;28;20033;-60
2021/11/17 04:19:19;;;;;;;53.83;4.00;;;;;;;;;;5023637;28;20033;-62
2021/11/17 04:22:10;;;;;;;40.25;3.08;;;;;;;;;;5016876;28;20391;-60
2021/11/17 04:24:42;;;;;;;46.95;3.72;;;;;;;;;;5022446;28;20022;-61
2021/11/17 04:27:29;;;;;;;38.80;3.22;;;;;;;;;;5017681;28;20040;-60
2021/11/17 04:30:04;;;;;;;39.33;4.28;;;;;;;;;;5018450;28;20544;-60
2021/11/17 04:32:35;;;;;;;49.72;4.35;;;;;;;;;;5033947;28;20090;-60
2021/11/17 04:35:10;;;;;;;39.17;3.83;;;;;;;;;;5019220;28;20068;-59
2021/11/17 04:38:00;;;;;;;41.85;4.57;;;;;;;;;;5014620;28;20029;-60
2021/11/17 04:40:36;;;;;;;42.72;4.47;;;;;;;;;;5014473;28;20121;-60
2021/11/17 04:43:20;;;;;;;26.92;3.53;;;;;;;;;;5020381;28;20028;-60
2021/11/17 04:46:06;;;;;;;37.78;3.47;;;;;;;;;;5020225;28;20037;-60
2021/11/17 04:48:39;;;;;;;57.72;4.50;;;;;;;;;;5014553;28;20033;-59
2021/11/17 04:51:04;;;;;;;;;;;;;;;;;;5016134;28;20053;-60
2021/11/17 04:53:54;;;;;;;37.05;3.88;;;;;;;;;;5016361;28;19956;-60
2021/11/17 04:56:32;;;;;;;53.70;4.22;;;;;;;;;;5018006;28;20021;-60
2021/11/17 04:59:19;;;;;;;57.55;4.22;;;;;;;;;;5015193;28;20033;-60
2021/11/17 05:01:53;;;;;;;57.58;5.15;;;;;;;;;;5016634;28;20487;-60
2021/11/17 05:04:47;;;;;;;39.45;3.40;;;;;;;;;;5024572;28;20033;-59
2021/11/17 05:07:58;;;;;;;30.10;2.88;;;;;;;;;;5017657;28;20559;-60
2021/11/17 05:10:51;;;;;;;34.70;3.30;;;;;;;;;;5003671;28;20045;-61
2021/11/17 05:13:19;;;;;;;46.58;3.75;;;;;;;;;;5017462;28;20037;-59
2021/11/17 05:15:54;;;;;;;40.90;3.92;;;;;;;;;;5013306;28;20088;-59
2021/11/17 05:18:25;;;;;;;65.70;3.40;;;;;;;;;;5021630;28;20033;-59
2021/11/17 05:20:57;;;;;;;34.00;3.58;;;;;;;;;;5020847;28;20076;-59
2021/11/17 05:23:54;;;;;;;50.88;3.50;;;;;;;;;;5014445;28;20042;-59
2021/11/17 05:26:49;;;;;;;39.90;4.30;;;;;;;;;;4997759;28;20243;-59
2021/11/17 05:29:56;;;;;;;42.45;3.78;;;;;;;;;;5012655;28;20496;-60
2021/11/17 05:32:24;;;;;;;50.10;3.90;;;;;;;;;;4996808;28;20519;-60
2021/11/17 05:34:59;;;;;;;50.83;5.15;;;;;;;;;;5016581;28;20117;-61
2021/11/17 05:37:37;;;;;;;39.80;4.05;;;;;;;;;;5017151;28;20029;-60
2021/11/17 05:40:50;;;;;;;42.40;3.67;;;;;;;;;;5017765;28;20037;-60
2021/11/17 05:43:46;;;;;;;40.33;4.10;;;;;;;;;;5017554;28;20119;-59
2021/11/17 05:46:39;;;;;;;28.77;2.25;;;;;;;;;;5023371;28;20060;-59
2021/11/17 05:49:10;;;;;;;46.72;3.33;;;;;;;;;;5024845;28;20065;-60
2021/11/17 05:51:51;;;;;;;40.70;4.10;;;;;;;;;;5025666;28;20409;-60
2021/11/17 05:54:19;;;;;;;35.20;3.92;;;;;;;;;;5029213;28;20037;-61
2021/11/17 05:56:51;;;;;;;60.17;6.65;;;;;;;;;;5022125;28;20380;-60
2021/11/17 05:59:55;;;;;;;;;;;;;;;;;;5022848;28;20037;-60
2021/11/17 06:02:50;;;;;;;34.58;2.60;;;;;;;;;;4999294;28;19914;-60
2021/11/17 06:05:15;;;;;;;63.92;4.32;;;;;;;;;;5001188;28;20037;-60
2021/11/17 06:07:40;;;;;;;45.05;5.18;;;;;;;;;;5009852;28;20034;-59
2021/11/17 06:10:12;;;;;;;31.27;4.35;;;;;;;;;;5024068;28;20056;-59
2021/11/17 06:12:39;;;;;;;37.30;3.63;;;;;;;;;;5024046;28;20499;-60
2021/11/17 06:15:07;;;;;;;44.45;4.55;;;;;;;;;;5022680;28;20558;-60
2021/11/17 06:17:33;;;;;;;51.80;4.72;;;;;;;;;;5018294;28;20034;-59
2021/11/17 06:19:59;;;;;;;34.70;3.08;;;;;;;;;;5017439;28;20076;-60
2021/11/17 06:22:29;;;;;;;48.38;3.60;;;;;;;;;;5016746;28;20058;-60
2021/11/17 06:24:58;;;;;;;49.03;3.35;;;;;;;;;;5022646;28;20029;-59
2021/11/17 06:27:31;;;;;;;39.42;3.25;;;;;;;;;;5020126;28;20036;-59
2021/11/17 06:29:59;;;;;;;47.63;5.78;;;;;;;;;;5021827;28;20025;-59
2021/11/17 06:32:26;;;;;;;64.78;4.28;;;;;;;;;;5023464;28;20045;-60
2021/11/17 06:34:55;;;;;;;41.85;3.92;;;;;;;;;;5020847;28;20078;-59
2021/11/17 06:37:22;;;;;;;31.85;3.20;;;;;;;;;;5020104;28;20083;-60
2021/11/17 06:39:51;;;;;;;50.20;3.55;;;;;;;;;;5017760;28;20029;-59
2021/11/17 06:42:24;;;;;;;49.10;4.95;;;;;;;;;;5020335;28;20022;-59
2021/11/17 06:44:50;;;;;;;35.47;3.45;;;;;;;;;;5023644;28;20041;-59
2021/11/17 06:47:16;;;;;;;31.42;3.40;;;;;;;;;;5021014;28;20048;-59
2021/11/17 06:49:42;;;;;;;41.20;3.67;;;;;;;;;;5023032;28;20497;-59
2021/11/17 06:52:09;;;;;;;36.17;4.38;;;;;;;;;;5021495;28;20064;-59
2021/11/17 06:54:34;;;;;;;31.90;3.40;;;;;;;;;;5018617;28;20167;-60
2021/11/17 06:57:00;;;;;;;29.30;3.35;;;;;;;;;;5021549;28;20053;-59
2021/11/17 06:59:26;;;;;;;45.40;4.22;;;;;;;;;;5020992;28;20448;-59
2021/11/17 07:01:51;;;;;;;47.05;3.95;;;;;;;;;;5016385;28;20037;-59
2021/11/17 07:04:17;;;;;;;47.22;4.30;;;;;;;;;;5021392;28;20433;-59
2021/11/17 07:06:42;;;;;;;50.88;4.70;;;;;;;;;;5019852;28;20077;-59
2021/11/17 07:09:09;;;;;;;48.25;3.50;;;;;;;;;;5022586;28;20086;-59
2021/11/17 07:11:37;;;;;;;66.55;4.55;;;;;;;;;;5021486;28;20172;-60
2021/11/17 07:14:10;;;;;;;61.15;5.28;;;;;;;;;;5022231;28;20083;-60
2021/11/17 07:16:38;;;;;;;35.35;3.25;;;;;;;;;;5014742;28;20033;-60
2021/11/17 07:19:07;;;;;;;41.08;4.47;;;;;;;;;;5020243;28;20029;-60
2021/11/17 07:21:33;;;;;;;41.05;3.45;;;;;;;;;;5015073;28;20091;-60
2021/11/17 07:23:59;;;;;;;40.28;3.88;;;;;;;;;;5017043;28;20493;-59
2021/11/17 07:26:25;;;;;;;61.33;4.90;;;;;;;;;;5021932;28;20029;-59
2021/11/17 07:28:51;;;;;;;31.95;2.97;;;;;;;;;;5023079;28;20151;-59
2021/11/17 07:31:17;;;;;;;47.53;4.00;;;;;;;;;;5016281;28;20124;-60
2021/11/17 07:33:43;;;;;;;43.88;5.43;;;;;;;;;;5020600;28;20580;-60
2021/11/17 07:36:09;;;;;;;52.00;5.15;;;;;;;;;;5026535;28;20869;-60
2021/11/17 07:38:34;;;;;;;48.60;4.22;;;;;;;;;;5013459;28;20577;-60
2021/11/17 07:41:00;;;;;;;43.70;5.13;;;;;;;;;;5015162;28;20033;-60
2021/11/17 07:43:28;;;;;;;33.08;3.30;;;;;;;;;;5013529;28;20367;-60
2021/11/17 07:45:54;;;;;;;40.97;3.33;;;;;;;;;;5017519;28;20037;-60
2021/11/17 07:48:23;;;;;;;37.65;3.35;;;;;;;;;;5017869;28;20042;-60
2021/11/17 07:50:49;;;;;;;48.88;6.65;;;;;;;;;;5019065;28;20037;-60
2021/11/17 07:53:17;;;;;;;53.80;4.18;;;;;;;;;;5017470;28;20025;-60
2021/11/17 07:55:45;;;;;;;46.10;3.60;;;;;;;;;;4984636;28;20734;-61
2021/11/17 07:58:11;;;;;;;62.88;5.25;;;;;;;;;;5012153;28;20060;-60
2021/11/17 08:00:39;;;;;;;37.00;5.13;;;;;;;;;;5013743;28;20037;-59
2021/11/17 08:03:05;;;;;;;35.97;3.33;;;;;;;;;;5008082;28;20048;-59
2021/11/17 08:05:31;;;;;;;33.63;3.20;;;;;;;;;;5011253;28;20018;-59
2021/11/17 08:07:59;;;;;;;47.28;5.10;;;;;;;;;;5016795;28;20033;-60
2021/11/17 08:10:33;;;;;;;46.75;4.53;;;;;;;;;;5017485;28;20447;-60
2021/11/17 08:12:59;;;;;;;35.92;4.15;;;;;;;;;;5012698;28;20511;-60
2021/11/17 08:15:25;;;;;;;39.95;5.32;;;;;;;;;;5008947;28;21182;-58
2021/11/17 08:17:50;;;;;;;16.33;2.47;;;;;;;;;;5015201;28;20037;-59
2021/11/17 08:20:18;;;;;;;48.53;3.67;;;;;;;;;;5016543;28;20074;-60
2021/11/17 08:22:47;;;;;;;66.93;4.88;;;;;;;;;;5005822;28;20028;-59
2021/11/17 08:25:14;;;;;;;35.47;2.72;;;;;;;;;;5010170;28;20034;-59
2021/11/17 08:27:40;;;;;;;47.28;4.13;;;;;;;;;;5018930;28;20506;-59
2021/11/17 08:30:10;;;;;;;28.70;3.03;;;;;;;;;;5017567;28;20034;-59
2021/11/17 08:32:37;;;;;;;58.40;4.95;;;;;;;;;;5014143;28;20444;-59
2021/11/17 08:35:05;;;;;;;25.40;2.53;;;;;;;;;;5017053;28;20034;-59
2021/11/17 08:37:31;;;;;;;49.83;5.70;;;;;;;;;;5019718;28;20030;-59
2021/11/17 08:40:00;;;;;;;65.47;5.13;;;;;;;;;;5011211;28;20099;-59
2021/11/17 08:42:26;;;;;;;39.58;3.47;;;;;;;;;;5020806;28;20027;-59
2021/11/17 08:44:51;;;;;;;42.30;3.47;;;;;;;;;;5012897;28;20513;-60
2021/11/17 08:47:19;;;;;;;44.42;3.88;;;;;;;;;;5009137;28;20049;-58
2021/11/17 08:49:45;;;;;;;51.75;3.70;;;;;;;;;;5009980;28;20224;-59
2021/11/17 08:52:11;;;;;;;34.10;4.03;;;;;;;;;;5019247;28;20763;-59
2021/11/17 08:54:39;;;;;;;35.60;4.75;;;;;;;;;;5016673;28;20391;-59
2021/11/17 08:57:05;;;;;;;50.58;4.40;;;;;;;;;;5015787;28;20103;-63
2021/11/17 08:59:32;;;;;;;49.13;4.13;;;;;;;;;;5015269;28;20219;-63
2021/11/17 09:02:01;;;;;;;30.95;3.15;;;;;;;;;;5023186;28;20039;-63
2021/11/17 09:04:27;;;;;;;41.00;4.07;;;;;;;;;;5019096;28;20440;-64
2021/11/17 09:06:52;;;;;;;31.42;2.88;;;;;;;;;;5017371;28;20033;-62
2021/11/17 09:09:19;;;;;;;44.80;5.35;;;;;;;;;;5015042;28;20029;-62
2021/11/17 09:11:45;;;;;;;41.90;4.18;;;;;;;;;;5018888;28;20042;-62
2021/11/17 09:14:10;;;;;;;40.25;4.78;;;;;;;;;;5016032;28;20033;-62
2021/11/17 09:16:39;;;;;;;31.42;4.18;;;;;;;;;;5014034;28;20022;-62
2021/11/17 09:19:06;;;;;;;37.70;4.20;;;;;;;;;;5022831;28;20036;-62
2021/11/17 09:21:34;;;;;;;53.53;4.10;;;;;;;;;;5018831;28;20112;-63
2021/11/17 09:24:07;;;;;;;36.67;3.53;;;;;;;;;;5019163;28;20030;-62
2021/11/17 09:26:34;;;;;;;49.75;3.60;;;;;;;;;;5017878;28;20119;-62
2021/11/17 09:29:01;;;;;;;39.22;3.78;;;;;;;;;;5018126;28;20080;-62
2021/11/17 09:31:29;;;;;;;35.90;3.08;;;;;;;;;;5016061;28;20396;-62
2021/11/17 09:33:55;;;;;;;38.20;4.15;;;;;;;;;;5015369;28;20026;-62
2021/11/17 09:36:25;;;;;;;40.80;3.55;;;;;;;;;;5011482;28;20129;-64
2021/11/17 09:38:53;;;;;;;38.70;5.25;;;;;;;;;;5035203;28;20025;-62
2021/11/17 09:41:26;;;;;;;27.52;3.53;;;;;;;;;;5018113;28;20025;-62
2021/11/17 09:43:56;;;;;;;39.55;4.32;;;;;;;;;;5016057;28;20029;-63
2021/11/17 09:46:24;;;;;;;33.05;3.08;;;;;;;;;;5018144;28;20034;-63
2021/11/17 09:49:04;;;;;;;34.33;3.72;;;;;;;;;;5020103;28;20443;-62
2021/11/17 09:51:34;;;;;;;32.90;3.22;;;;;;;;;;5019219;28;20036;-62
2021/11/17 09:54:14;;;;;;;43.08;3.95;;;;;;;;;;5018558;28;20037;-61
2021/11/17 09:56:45;;;;;;;33.92;3.97;;;;;;;;;;5021091;28;20444;-61
2021/11/17 09:59:20;;;;;;;39.95;3.30;;;;;;;;;;5014217;28;20064;-63
2021/11/17 10:02:06;;;;;;;42.35;3.55;;;;;;;;;;5015461;28;20462;-62
2021/11/17 10:05:10;;;;;;;27.77;2.92;;;;;;;;;;5012361;28;20045;-63
2021/11/17 10:13:10;;;;;;;31.63;3.28;;;;;;;;;;5019549;28;20037;-62
2021/11/17 10:15:40;;;;;;;24.95;3.30;;;;;;;;;;5015746;28;20069;-63
2021/11/17 10:18:20;;;;;;;35.13;4.05;;;;;;;;;;5015587;28;20112;-58
2021/11/17 10:20:56;;;;;;;29.73;2.65;;;;;;;;;;5029908;28;20305;-57
2021/11/17 10:23:31;;;;;;;41.42;4.40;;;;;;;;;;5012701;28;20087;-58
2021/11/17 10:26:08;;;;;;;37.67;3.83;;;;;;;;;;5018569;28;20033;-58
2021/11/17 10:28:55;;;;;;;33.03;4.63;;;;;;;;;;5014582;28;20104;-58
2021/11/17 10:31:32;;;;;;;21.50;3.25;;;;;;;;;;5017063;28;20142;-57
2021/11/17 10:34:04;;;;;;;33.30;4.45;;;;;;;;;;5023408;28;20501;-57
2021/11/17 10:36:47;;;;;;;42.55;3.28;;;;;;;;;;5020598;28;20031;-57
2021/11/17 10:39:21;;;;;;;33.70;4.45;;;;;;;;;;5021860;28;20039;-58
2021/11/17 10:41:58;;;;;;;51.65;4.50;;;;;;;;;;5020618;28;20037;-58
2021/11/17 10:44:54;;;;;;;33.85;3.78;;;;;;;;;;5018863;28;20416;-58
2021/11/17 10:47:27;;;;;;;45.67;4.07;;;;;;;;;;5018956;28;20053;-58
2021/11/17 10:49:55;;;;;;;32.30;3.28;;;;;;;;;;5014299;28;20045;-58
2021/11/17 10:52:32;;;;;;;27.05;3.28;;;;;;;;;;5027166;28;20094;-57
2021/11/17 10:55:00;;;;;;;38.53;3.42;;;;;;;;;;5025978;28;20032;-57
2021/11/17 10:57:33;;;;;;;32.95;3.25;;;;;;;;;;5021173;28;20234;-58
2021/11/17 10:59:59;;;;;;;25.02;3.55;;;;;;;;;;5020294;28;20095;-58
2021/11/17 11:02:29;;;;;;;33.33;4.18;;;;;;;;;;5015194;28;20037;-58
2021/11/17 11:05:05;;;;;;;35.65;2.60;;;;;;;;;;5022896;28;20036;-58
2021/11/17 11:07:54;;;;;;;37.65;4.90;;;;;;;;;;5015076;28;20655;-58
2021/11/17 11:10:26;;;;;;;30.85;3.22;;;;;;;;;;5027041;28;20029;-58
2021/11/17 11:12:53;;;;;;;30.27;3.22;;;;;;;;;;5022816;28;20486;-57
2021/11/17 11:15:37;;;;;;;41.40;3.42;;;;;;;;;;5020140;28;20037;-58
2021/11/17 11:18:09;;;;;;;50.92;3.67;;;;;;;;;;5023430;28;20034;-58
2021/11/17 11:20:43;;;;;;;36.17;4.43;;;;;;;;;;5020778;28;20101;-59
2021/11/17 11:23:09;;;;;;;42.22;4.50;;;;;;;;;;5019539;28;20044;-59
2021/11/17 11:25:53;;;;;;;33.88;3.53;;;;;;;;;;5018315;28;20025;-58
2021/11/17 11:28:21;;;;;;;37.42;3.70;;;;;;;;;;5020169;28;20033;-58
2021/11/17 11:31:09;;;;;;;36.28;2.97;;;;;;;;;;5015942;28;20556;-58
2021/11/17 11:33:48;;;;;;;33.38;2.85;;;;;;;;;;5023760;28;20048;-58
2021/11/17 11:36:14;;;;;;;35.97;3.35;;;;;;;;;;5015268;28;20415;-58
2021/11/17 11:38:49;;;;;;;44.28;3.30;;;;;;;;;;5015461;28;20099;-58
2021/11/17 11:41:37;;;;;;;36.08;3.33;;;;;;;;;;5018029;28;20110;-58
2021/11/17 11:44:20;;;;;;;32.50;4.07;;;;;;;;;;5015827;28;20049;-58
2021/11/17 11:46:56;;;;;;;33.88;2.78;;;;;;;;;;5015675;28;20052;-59
2021/11/17 11:49:21;;;;;;;36.88;3.40;;;;;;;;;;5017152;28;20025;-58
2021/11/17 11:51:52;;;;;;;38.05;3.72;;;;;;;;;;5016636;28;20036;-59
2021/11/17 11:54:28;;;;;;;31.73;3.75;;;;;;;;;;5018662;28;20025;-64
2021/11/17 11:57:32;;;;;;;41.65;4.18;;;;;;;;;;5014768;28;20103;-61
2021/11/17 12:00:15;;;;;;;26.48;3.35;;;;;;;;;;5018430;28;20038;-61
2021/11/17 12:02:49;;;;;;;36.22;3.38;;;;;;;;;;5015569;28;20461;-62
2021/11/17 12:05:36;;;;;;;43.55;4.43;;;;;;;;;;5014840;28;20385;-63
2021/11/17 12:08:32;;;;;;;29.30;2.67;;;;;;;;;;4997633;28;20030;-63
2021/11/17 12:11:06;;;;;;;43.65;3.83;;;;;;;;;;5019123;28;20033;-63
2021/11/17 12:13:43;;;;;;;47.30;3.92;;;;;;;;;;5020194;28;20025;-62
2021/11/17 12:16:22;;;;;;;30.25;3.65;;;;;;;;;;5023923;28;20527;-63
2021/11/17 12:19:07;;;;;;;29.95;3.35;;;;;;;;;;5018068;28;20423;-63
2021/11/17 12:21:41;;;;;;;37.92;3.92;;;;;;;;;;5013728;28;20032;-63
2021/11/17 12:24:11;;;;;;;57.42;3.70;;;;;;;;;;5014457;28;20698;-63
2021/11/17 12:26:46;;;;;;;44.13;3.17;;;;;;;;;;5035536;28;20203;-63
2021/11/17 12:29:22;;;;;;;34.20;2.83;;;;;;;;;;5018758;28;20084;-63
2021/11/17 12:32:05;;;;;;;37.30;3.97;;;;;;;;;;5018319;28;20025;-64
2021/11/17 12:34:48;;;;;;;28.40;3.25;;;;;;;;;;5016476;28;20033;-64
2021/11/17 12:37:26;;;;;;;28.67;2.67;;;;;;;;;;5012900;28;20571;-64
2021/11/17 12:39:51;;;;;;;29.15;2.83;;;;;;;;;;5013960;28;20033;-63
2021/11/17 12:42:29;;;;;;;44.78;4.85;;;;;;;;;;5019237;28;20030;-63
2021/11/17 12:44:56;;;;;;;42.38;3.00;;;;;;;;;;5017816;28;20099;-62
2021/11/17 12:47:41;;;;;;;24.35;3.05;;;;;;;;;;5013195;28;20044;-63
2021/11/17 12:50:30;;;;;;;40.38;3.10;;;;;;;;;;5014901;28;20070;-62
2021/11/17 12:53:20;;;;;;;33.78;2.90;;;;;;;;;;5016684;28;20108;-62
2021/11/17 12:56:03;;;;;;;46.17;3.75;;;;;;;;;;5019657;28;20271;-62
2021/11/17 12:58:38;;;;;;;36.88;2.90;;;;;;;;;;5021597;28;20024;-63
2021/11/17 13:01:09;;;;;;;40.30;3.20;;;;;;;;;;5020370;28;20030;-61
2021/11/17 13:03:55;;;;;;;51.50;4.97;;;;;;;;;;5017713;28;20440;-62
2021/11/17 13:06:28;;;;;;;29.55;2.97;;;;;;;;;;5000548;28;20037;-62
2021/11/17 13:09:11;;;;;;;27.40;2.55;;;;;;;;;;5010356;28;20449;-62
2021/11/17 13:11:49;;;;;;;43.53;3.60;;;;;;;;;;4993984;28;20111;-62
2021/11/17 13:14:25;;;;;;;36.22;3.47;;;;;;;;;;5017818;28;20045;-62
2021/11/17 13:16:58;;;;;;;40.63;3.30;;;;;;;;;;5019174;28;20086;-62
2021/11/17 13:19:34;;;;;;;34.40;3.25;;;;;;;;;;5012466;28;20025;-62
2021/11/17 13:22:04;;;;;;;26.67;2.85;;;;;;;;;;5016722;28;20040;-63
2021/11/17 13:24:35;;;;;;;28.02;3.97;;;;;;;;;;5015010;28;20484;-63
2021/11/17 13:27:07;;;;;;;30.67;3.03;;;;;;;;;;5019287;28;20390;-63
2021/11/17 13:29:51;;;;;;;29.88;3.45;;;;;;;;;;5015111;28;20033;-63
2021/11/17 13:32:24;;;;;;;33.20;3.25;;;;;;;;;;5015835;28;20192;-62
2021/11/17 13:34:52;;;;;;;39.25;5.20;;;;;;;;;;5020720;28;20037;-62
2021/11/17 13:37:37;;;;;;;28.10;3.03;;;;;;;;;;5018009;28;20052;-62
2021/11/17 13:40:08;;;;;;;37.88;3.65;;;;;;;;;;5019022;28;20141;-63
2021/11/17 13:42:35;;;;;;;42.05;3.95;;;;;;;;;;5012687;28;20029;-63
2021/11/17 13:45:08;;;;;;;34.08;3.67;;;;;;;;;;5015839;28;20049;-63
2021/11/17 13:47:34;;;;;;;42.92;4.18;;;;;;;;;;5016469;28;20121;-64
2021/11/17 13:50:02;;;;;;;34.05;3.92;;;;;;;;;;5016930;28;20171;-63
2021/11/17 13:52:32;;;;;;;34.45;3.60;;;;;;;;;;5041888;28;20029;-64
2021/11/17 13:54:58;;;;;;;33.55;3.35;;;;;;;;;;5018610;28;20032;-63
2021/11/17 13:57:24;;;;;;;51.10;4.95;;;;;;;;;;5018601;28;20037;-62
2021/11/17 13:59:50;;;;;;;35.40;3.30;;;;;;;;;;5014811;28;20514;-63
2021/11/17 14:02:15;;;;;;;39.05;3.40;;;;;;;;;;5011137;28;20116;-62
2021/11/17 14:04:41;;;;;;;39.83;3.65;;;;;;;;;;5017220;28;20040;-63
2021/11/17 14:07:08;;;;;;;34.13;3.67;;;;;;;;;;5022914;28;20028;-62
2021/11/17 14:09:34;;;;;;;46.33;4.50;;;;;;;;;;5025364;28;20041;-63
2021/11/17 14:12:01;;;;;;;41.40;3.42;;;;;;;;;;5018988;28;20452;-62
2021/11/17 14:14:27;;;;;;;33.05;3.72;;;;;;;;;;5016613;28;20040;-61
2021/11/17 14:16:53;;;;;;;24.27;3.88;;;;;;;;;;5019181;28;20500;-61
2021/11/17 14:19:19;;;;;;;42.75;4.97;;;;;;;;;;5025709;28;20041;-64
2021/11/17 14:21:45;;;;;;;42.28;3.28;;;;;;;;;;5023065;28;20029;-64
2021/11/17 14:24:12;;;;;;;43.72;4.90;;;;;;;;;;5025021;28;20025;-62
2021/11/17 14:26:41;;;;;;;43.83;4.55;;;;;;;;;;5024518;28;20026;-61
2021/11/17 14:29:22;;;;;;;29.92;3.40;;;;;;;;;;5021461;28;20037;-61
2021/11/17 14:31:52;;;;;;;47.57;3.97;;;;;;;;;;5021322;28;20392;-63
2021/11/17 14:34:18;;;;;;;48.20;4.63;;;;;;;;;;5023708;28;20029;-62
2021/11/17 14:36:49;;;;;;;33.08;3.13;;;;;;;;;;5023636;28;20058;-63
2021/11/17 14:39:17;;;;;;;36.90;3.17;;;;;;;;;;5021736;28;20060;-63
2021/11/17 14:41:43;;;;;;;35.28;3.97;;;;;;;;;;5022133;28;20568;-62
2021/11/17 14:44:09;;;;;;;30.63;3.67;;;;;;;;;;5023757;28;20046;-63
2021/11/17 14:46:35;;;;;;;32.55;4.68;;;;;;;;;;5021173;28;20080;-63
2021/11/17 14:49:01;;;;;;;37.40;5.00;;;;;;;;;;5025488;28;20195;-62
2021/11/17 14:51:27;;;;;;;39.03;3.47;;;;;;;;;;5019637;28;20196;-62
2021/11/17 14:53:53;;;;;;;26.25;2.72;;;;;;;;;;5019947;28;20117;-63
2021/11/17 14:56:21;;;;;;;32.15;3.70;;;;;;;;;;5021495;28;20121;-63
2021/11/17 14:58:47;;;;;;;40.95;4.82;;;;;;;;;;5014018;28;20021;-63
2021/11/17 15:01:20;;;;;;;31.25;3.08;;;;;;;;;;5015553;28;20056;-63
2021/11/17 15:03:48;;;;;;;26.65;2.88;;;;;;;;;;5014711;28;20112;-63
2021/11/17 15:06:16;;;;;;;31.55;3.75;;;;;;;;;;5025540;28;20029;-63
2021/11/17 15:08:42;;;;;;;40.00;3.97;;;;;;;;;;5021043;28;20480;-63
2021/11/17 15:11:08;;;;;;;29.30;3.10;;;;;;;;;;5019885;28;20033;-62
2021/11/17 15:13:34;;;;;;;25.20;3.72;;;;;;;;;;5019968;28;20030;-63
2021/11/17 15:16:00;;;;;;;40.72;4.28;;;;;;;;;;5022230;28;20059;-63
2021/11/17 15:18:27;;;;;;;49.78;4.65;;;;;;;;;;5012108;28;20110;-62
2021/11/17 15:20:53;;;;;;;43.50;4.18;;;;;;;;;;5014742;28;20064;-62
2021/11/17 15:23:21;;;;;;;36.70;3.67;;;;;;;;;;5021009;28;20033;-63
2021/11/17 15:25:49;;;;;;;40.30;4.18;;;;;;;;;;5010579;28;20018;-64
2021/11/17 15:28:28;;;;;;;44.05;5.18;;;;;;;;;;5017985;28;20025;-63
2021/11/17 15:30:59;;;;;;;42.13;3.75;;;;;;;;;;5024482;28;20491;-63
2021/11/17 15:33:26;;;;;;;35.78;5.78;;;;;;;;;;5020472;28;20030;-62
2021/11/17 15:35:52;;;;;;;27.15;3.45;;;;;;;;;;5011353;28;20108;-63
2021/11/17 15:38:19;;;;;;;37.50;4.13;;;;;;;;;;5017287;28;20026;-63
2021/11/17 15:40:49;;;;;;;39.60;3.80;;;;;;;;;;5021509;28;20021;-63
2021/11/17 15:43:16;;;;;;;47.15;3.97;;;;;;;;;;5020079;28;20492;-62
2021/11/17 15:45:42;;;;;;;31.88;3.90;;;;;;;;;;5016596;28;20034;-62
2021/11/17 15:48:08;;;;;;;39.60;3.78;;;;;;;;;;5021256;28;20096;-63
2021/11/17 15:50:38;;;;;;;33.20;4.65;;;;;;;;;;5018776;28;20461;-62
2021/11/17 15:53:05;;;;;;;39.40;4.15;;;;;;;;;;5016400;28;20550;-63
2021/11/17 15:55:30;;;;;;;29.83;3.17;;;;;;;;;;5018288;28;20034;-65
2021/11/17 15:57:56;;;;;;;30.40;4.13;;;;;;;;;;5016163;28;20048;-63
2021/11/17 16:00:24;;;;;;;34.65;3.35;;;;;;;;;;5015647;28;20906;-63
2021/11/17 16:02:50;;;;;;;44.35;4.65;;;;;;;;;;5017001;28;20395;-61
2021/11/17 16:05:17;;;;;;;38.10;3.67;;;;;;;;;;5019357;28;20037;-60
2021/11/17 16:07:43;;;;;;;38.88;5.18;;;;;;;;;;5020971;28;20040;-59
2021/11/17 16:10:11;;;;;;;45.40;4.97;;;;;;;;;;5015369;28;20025;-59
2021/11/17 16:12:37;;;;;;;38.28;4.38;;;;;;;;;;5016509;28;20025;-59
2021/11/17 16:15:06;;;;;;;51.58;3.97;;;;;;;;;;5018246;28;20094;-58
2021/11/17 16:17:36;;;;;;;44.67;3.72;;;;;;;;;;5018906;28;20311;-59
2021/11/17 16:20:11;;;;;;;31.77;3.85;;;;;;;;;;5014508;28;20500;-59
2021/11/17 16:22:41;;;;;;;36.72;3.67;;;;;;;;;;5019837;28;20041;-60
2021/11/17 16:27:56;;;;;;;42.58;5.40;;;;;;;;;;5018321;28;20041;-59
2021/11/17 16:30:23;;;;;;;44.15;3.85;;;;;;;;;;5017349;28;20037;-59
2021/11/17 16:32:49;;;;;;;38.10;4.18;;;;;;;;;;5014077;28;20028;-59
2021/11/17 16:35:18;;;;;;;40.30;4.43;;;;;;;;;;5012856;28;20017;-59
2021/11/17 16:37:43;;;;;;;46.85;4.47;;;;;;;;;;5019430;28;20033;-59
2021/11/17 16:40:14;;;;;;;35.17;4.78;;;;;;;;;;5023032;28;20033;-59
2021/11/17 16:42:40;;;;;;;38.30;4.10;;;;;;;;;;5017743;28;20036;-59
2021/11/17 16:45:07;;;;;;;34.38;5.18;;;;;;;;;;5013949;28;20049;-59
2021/11/17 16:47:33;;;;;;;42.05;5.38;;;;;;;;;;5017561;28;20030;-59
2021/11/17 16:49:59;;;;;;;41.83;5.03;;;;;;;;;;5013085;28;20026;-59
2021/11/17 16:52:31;;;;;;;47.00;6.57;;;;;;;;;;5012772;28;20025;-59
2021/11/17 16:54:58;;;;;;;43.45;4.60;;;;;;;;;;5014389;28;20044;-59
2021/11/17 16:57:25;;;;;;;51.08;4.93;;;;;;;;;;5014500;28;20484;-58
2021/11/17 16:59:51;;;;;;;31.15;4.78;;;;;;;;;;5014217;28;20064;-59
2021/11/17 17:02:21;;;;;;;64.70;5.78;;;;;;;;;;5010846;28;20037;-60
2021/11/17 17:04:47;;;;;;;41.50;4.70;;;;;;;;;;5014796;28;20017;-59
2021/11/17 17:07:13;;;;;;;37.88;6.40;;;;;;;;;;5014270;28;20034;-59
2021/11/17 17:09:40;;;;;;;60.20;5.60;;;;;;;;;;5013177;28;20042;-59
2021/11/17 17:12:08;;;;;;;38.50;5.07;;;;;;;;;;5017058;28;20025;-60
2021/11/17 17:14:35;;;;;;;41.53;4.82;;;;;;;;;;5022355;28;20113;-60
2021/11/17 17:17:00;;;;;;;57.08;6.70;;;;;;;;;;5023979;28;20025;-60
2021/11/17 17:19:26;;;;;;;55.55;6.90;;;;;;;;;;5011751;28;20548;-60
2021/11/17 17:21:52;;;;;;;43.78;5.95;;;;;;;;;;5025195;28;20584;-61
2021/11/17 17:24:19;;;;;;;38.97;5.85;;;;;;;;;;5017675;28;20034;-61
2021/11/17 17:26:45;;;;;;;34.08;5.47;;;;;;;;;;5020339;28;20072;-60
2021/11/17 17:29:11;;;;;;;37.53;5.53;;;;;;;;;;5020007;28;20080;-60
2021/11/17 17:31:37;;;;;;;32.45;5.82;;;;;;;;;;5017334;28;20022;-59
2021/11/17 17:34:03;;;;;;;43.92;5.80;;;;;;;;;;5017366;28;20120;-59
2021/11/17 17:36:30;;;;;;;42.92;6.95;;;;;;;;;;5017698;28;20080;-59
2021/11/17 17:38:56;;;;;;;40.83;6.43;;;;;;;;;;5018934;28;20105;-60
2021/11/17 17:41:22;;;;;;;31.98;5.20;;;;;;;;;;5017832;28;20026;-60